Time,TemperatureF,DewpointF,PressureIn,WindDirection,WindDirectionDegrees,WindSpeedMPH,WindSpeedGustMPH,Humidity,HourlyPrecipIn,Conditions,Clouds,dailyrainin,SoftwareType,DateUTC
2013-02-17 00:02:00,27.9,21.9,30.12,South,179,0.0,0.0,78,0.00,,SKC,0.00,VWS V12.07,2013-02-17 08:02:00,
2013-02-17 00:12:00,27.3,21.1,30.11,South,179,0.0,3.0,77,0.00,,SKC,0.00,VWS V12.07,2013-02-17 08:12:00,
2013-02-17 00:22:00,27.9,21.6,30.11,South,179,1.0,5.0,77,0.00,,SKC,0.00,VWS V12.07,2013-02-17 08:22:00,
2013-02-17 00:32:00,27.3,20.1,30.12,South,179,3.0,5.0,74,0.00,,SKC,0.00,VWS V12.07,2013-02-17 08:32:00,
2013-02-17 00:42:00,27.7,20.5,30.11,South,182,3.0,5.0,74,0.00,,SKC,0.00,VWS V12.07,2013-02-17 08:42:00,
2013-02-17 00:52:00,25.8,19.0,30.12,South,189,4.0,5.0,75,0.00,,SKC,0.00,VWS V12.07,2013-02-17 08:52:00,
2013-02-17 01:02:00,25.8,19.9,30.12,SSW,204,3.0,5.0,78,0.00,,SKC,0.00,VWS V12.07,2013-02-17 09:02:00,
2013-02-17 01:12:00,26.4,19.9,30.11,SSW,204,2.0,7.0,76,0.00,,SKC,0.00,VWS V12.07,2013-02-17 09:12:00,
2013-02-17 01:22:00,26.3,20.1,30.11,SSW,204,5.0,7.0,77,0.00,,SKC,0.00,VWS V12.07,2013-02-17 09:22:00,
2013-02-17 01:32:00,27.0,19.8,30.13,SSW,204,2.0,4.0,74,0.00,,SKC,0.00,VWS V12.07,2013-02-17 09:32:00,
2013-02-17 01:42:00,25.5,18.4,30.12,SSW,204,4.0,5.0,74,0.00,,SKC,0.00,VWS V12.07,2013-02-17 09:42:00,
2013-02-17 01:52:00,25.6,19.1,30.12,WSW,256,6.0,10.0,76,0.00,,SKC,0.00,VWS V12.07,2013-02-17 09:52:00,
2013-02-17 02:03:00,25.2,18.7,30.13,WSW,258,0.0,5.0,76,0.00,,SKC,0.00,VWS V12.07,2013-02-17 10:03:00,
2013-02-17 02:12:00,24.7,18.5,30.12,WSW,258,2.0,5.0,77,0.00,,SKC,0.00,VWS V12.07,2013-02-17 10:12:00,
2013-02-17 02:22:00,25.1,18.6,30.11,WSW,237,3.0,7.0,76,0.00,,SKC,0.00,VWS V12.07,2013-02-17 10:22:00,
2013-02-17 02:32:00,25.5,18.7,30.12,SW,230,3.0,5.0,75,0.00,,SKC,0.00,VWS V12.07,2013-02-17 10:32:00,
2013-02-17 02:42:00,25.7,18.9,30.12,SW,230,6.0,6.0,75,0.00,,SKC,0.00,VWS V12.07,2013-02-17 10:42:00,
2013-02-17 02:52:00,26.4,19.2,30.11,SSW,211,6.0,10.0,74,0.00,,SKC,0.00,VWS V12.07,2013-02-17 10:52:00,
2013-02-17 03:02:00,26.4,18.6,30.10,SSW,213,6.0,6.0,72,0.00,,SKC,0.00,VWS V12.07,2013-02-17 11:02:00,
2013-02-17 03:12:00,24.2,17.1,30.10,WSW,240,6.0,7.0,74,0.00,,SKC,0.00,VWS V12.07,2013-02-17 11:12:00,
2013-02-17 03:22:00,24.6,18.1,30.12,WSW,239,6.0,7.0,76,0.00,,SKC,0.00,VWS V12.07,2013-02-17 11:22:00,
2013-02-17 03:32:00,25.1,18.3,30.10,WSW,239,4.0,6.0,75,0.00,,SKC,0.00,VWS V12.07,2013-02-17 11:32:00,
2013-02-17 03:42:00,24.5,18.0,30.10,SW,234,7.0,9.0,76,0.00,,SKC,0.00,VWS V12.07,2013-02-17 11:42:00,
2013-02-17 03:53:00,25.2,18.7,30.11,SW,226,5.0,10.0,76,0.00,,SKC,0.00,VWS V12.07,2013-02-17 11:53:00,
2013-02-17 04:02:00,25.2,18.1,30.09,SW,225,4.0,5.0,74,0.00,,SKC,0.00,VWS V12.07,2013-02-17 12:02:00,
2013-02-17 04:12:00,24.8,18.0,30.11,SW,219,6.0,9.0,75,0.00,,SKC,0.00,VWS V12.07,2013-02-17 12:12:00,
2013-02-17 04:22:00,25.3,18.5,30.09,SW,220,2.0,9.0,75,0.00,,SKC,0.00,VWS V12.07,2013-02-17 12:22:00,
2013-02-17 04:32:00,24.3,17.2,30.10,SW,228,4.0,7.0,74,0.00,,SKC,0.00,VWS V12.07,2013-02-17 12:32:00,
2013-02-17 04:42:00,25.1,18.3,30.09,SW,230,5.0,9.0,75,0.00,,SKC,0.00,VWS V12.07,2013-02-17 12:42:00,
2013-02-17 04:52:00,24.9,17.8,30.09,SW,229,5.0,9.0,74,0.00,,SKC,0.00,VWS V12.07,2013-02-17 12:52:00,
2013-02-17 05:02:00,24.9,17.8,30.10,SW,226,7.0,9.0,74,0.00,,SKC,0.00,VWS V12.07,2013-02-17 13:02:00,
2013-02-17 05:12:00,23.9,16.5,30.11,SW,218,4.0,9.0,73,0.00,,SKC,0.00,VWS V12.07,2013-02-17 13:12:00,
2013-02-17 05:22:00,23.5,17.1,30.10,SW,218,3.0,9.0,76,0.00,,SKC,0.00,VWS V12.07,2013-02-17 13:22:00,
2013-02-17 05:32:00,23.6,17.2,30.08,SW,217,5.0,8.0,76,0.00,,SKC,0.00,VWS V12.07,2013-02-17 13:32:00,
2013-02-17 05:42:00,24.0,17.5,30.08,SW,217,7.0,8.0,76,0.00,,SKC,0.00,VWS V12.07,2013-02-17 13:42:00,
2013-02-17 05:52:00,23.7,17.0,30.09,SW,219,0.0,9.0,75,0.00,,SKC,0.00,VWS V12.07,2013-02-17 13:52:00,
2013-02-17 06:02:00,23.9,17.1,30.08,SW,229,9.0,12.0,75,0.00,,SKC,0.00,VWS V12.07,2013-02-17 14:02:00,
2013-02-17 06:12:00,24.1,17.0,30.09,SW,222,3.0,12.0,74,0.00,,SKC,0.00,VWS V12.07,2013-02-17 14:12:00,
2013-02-17 06:22:00,23.9,16.8,30.11,SW,230,9.0,12.0,74,0.00,,SKC,0.00,VWS V12.07,2013-02-17 14:22:00,
2013-02-17 06:32:00,23.8,16.7,30.09,SW,227,5.0,9.0,74,0.00,,SKC,0.00,VWS V12.07,2013-02-17 14:32:00,
2013-02-17 06:42:00,23.9,16.8,30.09,SW,224,7.0,11.0,74,0.00,,SKC,0.00,VWS V12.07,2013-02-17 14:42:00,
2013-02-17 06:52:00,23.9,16.8,30.09,SW,229,4.0,11.0,74,0.00,,SKC,0.00,VWS V12.07,2013-02-17 14:52:00,
2013-02-17 07:02:00,23.8,16.7,30.10,SW,230,8.0,9.0,74,0.00,,SKC,0.00,VWS V12.07,2013-02-17 15:02:00,
2013-02-17 07:12:00,24.0,16.9,30.10,SW,229,6.0,12.0,74,0.00,,SKC,0.00,VWS V12.07,2013-02-17 15:12:00,
2013-02-17 07:22:00,24.1,17.0,30.10,SW,214,9.0,12.0,74,0.00,,SKC,0.00,VWS V12.07,2013-02-17 15:22:00,
2013-02-17 07:32:00,24.3,16.9,30.11,SW,223,6.0,12.0,73,0.00,,SKC,0.00,VWS V12.07,2013-02-17 15:32:00,
2013-02-17 07:42:00,24.6,17.2,30.11,SW,228,4.0,12.0,73,0.00,,SKC,0.00,VWS V12.07,2013-02-17 15:42:00,
2013-02-17 07:52:00,25.2,17.8,30.10,SW,229,10.0,12.0,73,0.00,,SKC,0.00,VWS V12.07,2013-02-17 15:52:00,
2013-02-17 08:02:00,25.5,17.4,30.11,SW,233,5.0,9.0,71,0.00,,SKC,0.00,VWS V12.07,2013-02-17 16:02:00,
2013-02-17 08:12:00,26.1,18.0,30.11,SW,221,9.0,10.0,71,0.00,,SKC,0.00,VWS V12.07,2013-02-17 16:12:00,
2013-02-17 08:22:00,26.7,18.2,30.11,SW,224,11.0,14.0,70,0.00,,SKC,0.00,VWS V12.07,2013-02-17 16:22:00,
2013-02-17 08:32:00,27.0,18.5,30.11,SW,229,7.0,12.0,70,0.00,,SKC,0.00,VWS V12.07,2013-02-17 16:32:00,
2013-02-17 08:42:00,27.9,19.1,30.11,SSW,213,6.0,12.0,69,0.00,,SKC,0.00,VWS V12.07,2013-02-17 16:42:00,
2013-02-17 08:52:00,28.8,19.6,30.11,SSW,213,7.0,12.0,68,0.00,,SKC,0.00,VWS V12.07,2013-02-17 16:52:00,
2013-02-17 09:02:00,29.3,19.7,30.10,SW,224,10.0,14.0,67,0.00,,SKC,0.00,VWS V12.07,2013-02-17 17:02:00,
2013-02-17 09:12:00,29.8,20.2,30.11,SW,227,5.0,14.0,67,0.00,,SKC,0.00,VWS V12.07,2013-02-17 17:12:00,
2013-02-17 09:22:00,30.4,20.4,30.11,SW,214,9.0,14.0,66,0.00,,SKC,0.00,VWS V12.07,2013-02-17 17:22:00,
2013-02-17 09:32:00,31.4,21.0,30.10,SSW,213,5.0,13.0,65,0.00,,SKC,0.00,VWS V12.07,2013-02-17 17:32:00,
2013-02-17 09:42:00,31.9,20.8,30.10,SSW,203,7.0,14.0,63,0.00,,SKC,0.00,VWS V12.07,2013-02-17 17:42:00,
2013-02-17 09:52:00,32.6,20.7,30.11,SW,215,11.0,14.0,61,0.00,,SKC,0.00,VWS V12.07,2013-02-17 17:52:00,
2013-02-17 10:02:00,33.0,19.9,30.11,SSW,208,9.0,12.0,58,0.00,,SKC,0.00,VWS V12.07,2013-02-17 18:02:00,
2013-02-17 10:12:00,33.3,20.1,30.12,South,186,6.0,14.0,58,0.00,,SKC,0.00,VWS V12.07,2013-02-17 18:12:00,
2013-02-17 10:22:00,33.7,19.7,30.10,South,179,7.0,14.0,56,0.00,,SKC,0.00,VWS V12.07,2013-02-17 18:22:00,
2013-02-17 10:32:00,34.1,19.2,30.09,SSW,197,6.0,10.0,54,0.00,,SKC,0.00,VWS V12.07,2013-02-17 18:32:00,
2013-02-17 10:42:00,35.1,19.7,30.09,SSW,192,5.0,10.0,53,0.00,,SKC,0.00,VWS V12.07,2013-02-17 18:42:00,
2013-02-17 10:52:00,35.3,17.6,30.10,South,183,5.0,14.0,48,0.00,,SKC,0.00,VWS V12.07,2013-02-17 18:52:00,
2013-02-17 11:02:00,35.9,16.1,30.10,South,179,3.0,11.0,44,0.00,,SKC,0.00,VWS V12.07,2013-02-17 19:02:00,
2013-02-17 11:12:00,36.4,15.0,30.09,SSW,197,9.0,12.0,41,0.00,,SKC,0.00,VWS V12.07,2013-02-17 19:12:00,
2013-02-17 11:22:00,36.6,14.0,30.08,South,175,7.0,12.0,39,0.00,,SKC,0.00,VWS V12.07,2013-02-17 19:22:00,
2013-02-17 11:32:00,36.8,12.4,30.08,SW,220,5.0,12.0,36,0.00,,SKC,0.00,VWS V12.07,2013-02-17 19:32:00,
2013-02-17 11:42:00,37.4,13.5,30.07,SE,130,9.0,14.0,37,0.00,,SKC,0.00,VWS V12.07,2013-02-17 19:42:00,
2013-02-17 11:52:00,37.8,12.6,30.07,South,182,6.0,14.0,35,0.00,,SKC,0.00,VWS V12.07,2013-02-17 19:52:00,
2013-02-17 12:02:00,38.4,12.5,30.08,South,186,7.0,12.0,34,0.00,,SKC,0.00,VWS V12.07,2013-02-17 20:02:00,
2013-02-17 12:12:00,38.3,12.4,30.07,South,183,4.0,12.0,34,0.00,,SKC,0.00,VWS V12.07,2013-02-17 20:12:00,
2013-02-17 12:22:00,38.8,12.9,30.06,SSW,204,7.0,12.0,34,0.00,,SKC,0.00,VWS V12.07,2013-02-17 20:22:00,
2013-02-17 12:32:00,39.4,11.3,30.06,SSW,196,7.0,8.0,31,0.00,,SKC,0.00,VWS V12.07,2013-02-17 20:32:00,
2013-02-17 12:42:00,39.4,8.2,30.06,South,184,7.0,11.0,27,0.00,,SKC,0.00,VWS V12.07,2013-02-17 20:42:00,
2013-02-17 12:52:00,40.3,10.6,30.06,South,184,2.0,11.0,29,0.00,,SKC,0.00,VWS V12.07,2013-02-17 20:52:00,
2013-02-17 13:02:00,40.5,10.0,30.05,SSW,213,0.0,8.0,28,0.00,,SKC,0.00,VWS V12.07,2013-02-17 21:02:00,
2013-02-17 13:12:00,41.1,9.7,30.06,SSW,197,4.0,9.0,27,0.00,,SKC,0.00,VWS V12.07,2013-02-17 21:12:00,
2013-02-17 13:22:00,41.0,8.8,30.06,SW,228,4.0,9.0,26,0.00,,SKC,0.00,VWS V12.07,2013-02-17 21:22:00,
2013-02-17 13:32:00,41.4,7.3,30.04,SW,231,5.0,8.0,24,0.00,,SKC,0.00,VWS V12.07,2013-02-17 21:32:00,
2013-02-17 13:42:00,41.8,6.7,30.03,SSW,211,2.0,10.0,23,0.00,,SKC,0.00,VWS V12.07,2013-02-17 21:42:00,
2013-02-17 13:52:00,42.2,8.0,30.03,SSW,200,5.0,10.0,24,0.00,,SKC,0.00,VWS V12.07,2013-02-17 21:52:00,
2013-02-17 14:02:00,42.3,8.1,30.03,SSW,200,0.0,3.0,24,0.00,,SKC,0.00,VWS V12.07,2013-02-17 22:02:00,
2013-02-17 14:12:00,43.7,9.3,30.04,SSW,201,2.0,7.0,24,0.00,,SKC,0.00,VWS V12.07,2013-02-17 22:12:00,
2013-02-17 14:22:00,43.5,10.0,30.02,SSW,202,3.0,7.0,25,0.00,,SKC,0.00,VWS V12.07,2013-02-17 22:22:00,
2013-02-17 14:32:00,43.2,8.9,30.02,SSW,201,0.0,6.0,24,0.00,,SKC,0.00,VWS V12.07,2013-02-17 22:32:00,
2013-02-17 14:42:00,42.6,11.0,30.02,South,185,5.0,7.0,27,0.00,,SKC,0.00,VWS V12.07,2013-02-17 22:42:00,
2013-02-17 14:52:00,42.4,10.8,30.02,ESE,108,3.0,9.0,27,0.00,,SKC,0.00,VWS V12.07,2013-02-17 22:52:00,
2013-02-17 15:02:00,42.3,13.1,30.03,NNE,21,5.0,10.0,30,0.00,,SKC,0.00,VWS V12.07,2013-02-17 23:02:00,
2013-02-17 15:12:00,41.4,12.3,30.03,NNE,21,7.0,13.0,30,0.00,,SKC,0.00,VWS V12.07,2013-02-17 23:12:00,
2013-02-17 15:22:00,41.2,14.3,30.01,ENE,71,8.0,13.0,33,0.00,,SKC,0.00,VWS V12.07,2013-02-17 23:22:00,
2013-02-17 15:32:00,40.9,14.0,30.01,NNE,20,9.0,13.0,33,0.00,,SKC,0.00,VWS V12.07,2013-02-17 23:32:00,
2013-02-17 15:42:00,41.2,14.3,30.01,NE,35,9.0,16.0,33,0.00,,SKC,0.00,VWS V12.07,2013-02-17 23:42:00,
2013-02-17 16:02:00,40.5,14.4,30.02,North,7,6.0,11.0,34,0.00,,SKC,0.00,VWS V12.07,2013-02-18 00:02:00,
2013-02-17 16:12:00,40.5,13.7,30.03,NNE,29,3.0,12.0,33,0.00,,SKC,0.00,VWS V12.07,2013-02-18 00:12:00,
2013-02-17 16:22:00,40.4,13.6,30.02,NNE,31,5.0,12.0,33,0.00,,SKC,0.00,VWS V12.07,2013-02-18 00:22:00,
2013-02-17 16:32:00,40.4,13.6,30.01,NNE,22,5.0,10.0,33,0.00,,SKC,0.00,VWS V12.07,2013-02-18 00:32:00,
2013-02-17 16:42:00,40.3,14.2,30.02,NNE,19,7.0,10.0,34,0.00,,SKC,0.00,VWS V12.07,2013-02-18 00:42:00,
2013-02-17 16:52:00,39.8,14.4,30.02,NNE,21,5.0,10.0,35,0.00,,SKC,0.00,VWS V12.07,2013-02-18 00:52:00,
2013-02-17 17:02:00,39.4,14.7,30.02,North,4,5.0,7.0,36,0.00,,SKC,0.00,VWS V12.07,2013-02-18 01:02:00,
2013-02-17 17:12:00,39.1,15.0,30.02,North,8,4.0,7.0,37,0.00,,SKC,0.00,VWS V12.07,2013-02-18 01:12:00,
2013-02-17 17:22:00,38.8,14.1,30.03,North,8,4.0,7.0,36,0.00,,SKC,0.00,VWS V12.07,2013-02-18 01:22:00,
2013-02-17 17:32:00,38.7,14.7,30.02,North,10,5.0,6.0,37,0.00,,SKC,0.00,VWS V12.07,2013-02-18 01:32:00,
2013-02-17 17:42:00,38.0,17.0,30.02,North,359,6.0,11.0,42,0.00,,SKC,0.00,VWS V12.07,2013-02-18 01:42:00,
2013-02-17 17:52:00,36.9,20.0,30.02,NNW,334,8.0,12.0,50,0.00,,SKC,0.00,VWS V12.07,2013-02-18 01:52:00,
2013-02-17 18:02:00,36.0,20.5,30.02,NNW,329,2.0,10.0,53,0.00,,SKC,0.00,VWS V12.07,2013-02-18 02:02:00,
2013-02-17 18:12:00,35.3,21.2,30.02,NNW,332,6.0,12.0,56,0.00,,SKC,0.00,VWS V12.07,2013-02-18 02:12:00,
2013-02-17 18:22:00,34.8,21.5,30.02,NNW,334,7.0,12.0,58,0.00,,SKC,0.00,VWS V12.07,2013-02-18 02:22:00,
2013-02-17 18:32:00,34.4,21.6,30.01,NNW,336,4.0,7.0,59,0.00,,SKC,0.00,VWS V12.07,2013-02-18 02:32:00,
2013-02-17 18:42:00,34.0,21.2,30.01,NNW,335,6.0,9.0,59,0.00,,SKC,0.00,VWS V12.07,2013-02-18 02:42:00,
2013-02-17 18:52:00,33.7,21.3,30.01,NNW,333,4.0,9.0,60,0.00,,SKC,0.00,VWS V12.07,2013-02-18 02:52:00,
2013-02-17 19:02:00,33.6,21.6,30.02,NNW,333,3.0,8.0,61,0.00,,SKC,0.00,VWS V12.07,2013-02-18 03:02:00,
2013-02-17 19:12:00,33.1,21.1,30.03,NNW,333,5.0,8.0,61,0.00,,SKC,0.00,VWS V12.07,2013-02-18 03:12:00,
2013-02-17 19:22:00,32.5,20.9,30.02,NNW,333,1.0,8.0,62,0.00,,SKC,0.00,VWS V12.07,2013-02-18 03:22:00,
2013-02-17 19:32:00,31.9,20.8,30.01,NNW,333,2.0,5.0,63,0.00,,SKC,0.00,VWS V12.07,2013-02-18 03:32:00,
2013-02-17 19:42:00,31.6,20.8,30.01,NNW,333,5.0,7.0,64,0.00,,SKC,0.00,VWS V12.07,2013-02-18 03:42:00,
2013-02-17 19:52:00,31.0,20.3,30.01,NNW,333,3.0,7.0,64,0.00,,SKC,0.00,VWS V12.07,2013-02-18 03:52:00,
2013-02-17 20:02:00,30.4,20.1,30.02,NNW,333,3.0,5.0,65,0.00,,SKC,0.00,VWS V12.07,2013-02-18 04:02:00,
2013-02-17 20:12:00,30.1,20.1,30.02,NNW,333,0.0,7.0,66,0.00,,SKC,0.00,VWS V12.07,2013-02-18 04:12:00,
2013-02-17 20:22:00,30.2,20.6,30.02,NNW,333,2.0,7.0,67,0.00,,SKC,0.00,VWS V12.07,2013-02-18 04:22:00,
2013-02-17 20:32:00,29.8,20.2,30.01,NNW,333,3.0,5.0,67,0.00,,SKC,0.00,VWS V12.07,2013-02-18 04:32:00,
2013-02-17 20:42:00,29.5,19.9,30.02,NNW,333,2.0,5.0,67,0.00,,SKC,0.00,VWS V12.07,2013-02-18 04:42:00,
2013-02-17 20:52:00,29.7,20.5,30.01,NNW,333,2.0,5.0,68,0.00,,SKC,0.00,VWS V12.07,2013-02-18 04:52:00,
2013-02-17 21:02:00,29.9,20.6,30.03,NNW,333,1.0,3.0,68,0.00,,SKC,0.00,VWS V12.07,2013-02-18 05:02:00,
2013-02-17 21:12:00,29.7,20.8,30.01,NNW,333,4.0,5.0,69,0.00,,SKC,0.00,VWS V12.07,2013-02-18 05:12:00,
2013-02-17 21:22:00,29.6,20.4,30.01,NNW,332,3.0,5.0,68,0.00,,SKC,0.00,VWS V12.07,2013-02-18 05:22:00,
2013-02-17 21:32:00,29.5,20.3,30.00,NNW,332,3.0,3.0,68,0.00,,SKC,0.00,VWS V12.07,2013-02-18 05:32:00,
2013-02-17 21:42:00,29.4,20.2,30.01,NNW,332,3.0,4.0,68,0.00,,SKC,0.00,VWS V12.07,2013-02-18 05:42:00,
2013-02-17 21:52:00,28.9,19.7,30.00,NNW,332,2.0,5.0,68,0.00,,SKC,0.00,VWS V12.07,2013-02-18 05:52:00,
2013-02-17 22:02:00,28.6,19.4,30.00,NNW,327,2.0,5.0,68,0.00,,SKC,0.00,VWS V12.07,2013-02-18 06:02:00,
2013-02-17 22:12:00,28.9,20.0,30.00,NNW,327,0.0,5.0,69,0.00,,SKC,0.00,VWS V12.07,2013-02-18 06:12:00,
2013-02-17 22:22:00,28.9,19.7,29.99,NNW,327,2.0,5.0,68,0.00,,SKC,0.00,VWS V12.07,2013-02-18 06:22:00,
2013-02-17 22:32:00,28.5,20.0,29.99,NNW,327,1.0,5.0,70,0.00,,SKC,0.00,VWS V12.07,2013-02-18 06:32:00,
2013-02-17 22:42:00,28.5,20.0,29.99,NNW,327,4.0,5.0,70,0.00,,SKC,0.00,VWS V12.07,2013-02-18 06:42:00,
2013-02-17 22:52:00,28.3,19.8,29.98,NNW,327,3.0,5.0,70,0.00,,SKC,0.00,VWS V12.07,2013-02-18 06:52:00,
2013-02-17 23:03:00,27.9,19.4,29.99,NNW,327,1.0,4.0,70,0.00,,SKC,0.00,VWS V12.07,2013-02-18 07:03:00,
2013-02-17 23:12:00,27.7,19.2,29.99,NNW,327,2.0,4.0,70,0.00,,SKC,0.00,VWS V12.07,2013-02-18 07:12:00,
2013-02-17 23:22:00,27.3,18.8,29.98,NNW,327,0.0,4.0,70,0.00,,SKC,0.00,VWS V12.07,2013-02-18 07:22:00,
2013-02-17 23:32:00,27.2,18.7,29.98,NNW,327,2.0,5.0,70,0.00,,SKC,0.00,VWS V12.07,2013-02-18 07:32:00,
2013-02-17 23:42:00,26.7,18.6,29.99,NNW,327,0.0,5.0,71,0.00,,SKC,0.00,VWS V12.07,2013-02-18 07:42:00,
2013-02-17 23:52:00,26.1,18.3,29.98,NNW,327,0.0,5.0,72,0.00,,SKC,0.00,VWS V12.07,2013-02-18 07:52:00,